»·PEaware :: SVW101 YBCS-AGGH

SVW101 :: YBCS-AGGH

FLIGHT INFORMATION

Flight Status: Arrived
Operator: Unknown
More flights by this operator :: More flights under this callsign
Pilot: Charles S. (11412)
Aircraft: AIRBUS A319
(A319)
More flights by this aircraft type
Origin: YBCS Cairns Intl
Australia
Destination: AGGH Henderson
Solomon Islands
More flights between these airports :: More routes between these airports
Route:
File this flight plan on PilotEdge
Remarks:
Altitude:
(Current/Filed)
35,000ft
Speed:
(Current/Filed)
400kts
Departed: 08-Jun-20 02:55 PM
Arrived: 08-Jun-20 05:59 PM
Distance/Time
Traveled:
947nm/3:04
Distance/Time
To Go:
Arrived

Flight Plot

Page will automatically refresh every two minutes.

Flight plan parsing failed; only flown route is shown


Map Options




Map Legend


Flown Route
Filed Route
Departure Airport
Arrival Airport
Navaid (VOR, NDB)
Fix

Horizontal Profiles

Position Reports

Time Latitude Longitude Heading Altitude Ground
Speed
08-Jun-20 14:12 -16.873372 145.752193 157 18ft 0kts
08-Jun-20 14:13 -16.873372 145.752193 157 18ft 0kts
08-Jun-20 14:14 -16.873372 145.752193 157 18ft 0kts
08-Jun-20 14:15 -16.873372 145.752193 157 18ft 0kts
08-Jun-20 14:16 -16.873372 145.752193 157 18ft 0kts
08-Jun-20 14:17 -16.873372 145.752193 157 18ft 0kts
08-Jun-20 14:18 -16.873372 145.752193 157 18ft 0kts
08-Jun-20 14:19 -16.873372 145.752193 157 18ft 0kts
08-Jun-20 14:20 -16.873372 145.752193 157 18ft 0kts
08-Jun-20 14:21 -16.873372 145.752193 157 18ft 0kts
08-Jun-20 14:22 -16.873372 145.752193 157 18ft 0kts
08-Jun-20 14:23 -16.873372 145.752193 157 18ft 0kts
08-Jun-20 14:24 -16.873372 145.752193 157 18ft 0kts
08-Jun-20 14:25 -16.873372 145.752193 157 18ft 0kts
08-Jun-20 14:26 -16.873372 145.752193 157 18ft 0kts
08-Jun-20 14:27 -16.873372 145.752193 157 18ft 0kts
08-Jun-20 14:28 -16.873372 145.752193 157 18ft 0kts
08-Jun-20 14:29 -16.873372 145.752193 157 18ft 0kts
08-Jun-20 14:30 -16.873372 145.752193 157 18ft 0kts
08-Jun-20 14:31 -16.873372 145.752193 157 18ft 0kts
08-Jun-20 14:32 -16.873372 145.752193 157 18ft 0kts
08-Jun-20 14:33 -16.873372 145.752193 157 18ft 0kts
08-Jun-20 14:34 -16.873372 145.752193 157 18ft 0kts
08-Jun-20 14:35 -16.873372 145.752193 157 18ft 0kts
08-Jun-20 14:36 -16.873372 145.752193 157 18ft 0kts
08-Jun-20 14:37 -16.873372 145.752193 157 18ft 0kts
08-Jun-20 14:38 -16.873372 145.752193 157 18ft 0kts
08-Jun-20 14:39 -16.873372 145.752193 157 18ft 0kts
08-Jun-20 14:40 -16.873372 145.752193 157 18ft 0kts
08-Jun-20 14:41 -16.873372 145.752193 157 18ft 0kts
08-Jun-20 14:42 -16.873372 145.752193 157 18ft 0kts
08-Jun-20 14:43 -16.873372 145.752193 157 18ft 0kts
08-Jun-20 14:44 -16.873372 145.752193 157 18ft 0kts
08-Jun-20 14:45 -16.873187 145.752113 157 19ft 2kts
08-Jun-20 14:46 -16.872623 145.751949 197 19ft 2kts
08-Jun-20 14:47 -16.872372 145.752205 247 18ft 0kts
08-Jun-20 14:48 -16.872372 145.752205 247 18ft 0kts
08-Jun-20 14:49 -16.872901 145.750965 244 18ft 0kts
08-Jun-20 14:50 -16.872944 145.750856 247 18ft 5kts
08-Jun-20 14:51 -16.871008 145.747880 333 19ft 4kts
08-Jun-20 14:53 -16.868092 145.744585 336 19ft 31kts
08-Jun-20 14:54 -16.866692 145.743956 155 20ft 14kts
08-Jun-20 14:55 -16.897668 145.757787 149 1445ft 155kts
08-Jun-20 14:56 -16.882000 145.796607 36 3533ft 219kts
08-Jun-20 14:57 -16.831749 145.832318 36 6083ft 248kts
08-Jun-20 14:58 -16.781596 145.886845 64 8761ft 277kts
08-Jun-20 14:59 -16.747908 145.959366 63 11059ft 308kts
08-Jun-20 15:00 -16.709762 146.040191 62 13739ft 321kts
08-Jun-20 15:01 -16.671325 146.121314 62 16099ft 333kts
08-Jun-20 15:02 -16.630322 146.207580 61 18330ft 344kts
08-Jun-20 15:03 -16.586433 146.299771 60 20393ft 355kts
08-Jun-20 15:04 -16.541950 146.393183 60 22273ft 365kts
08-Jun-20 15:05 -16.496094 146.489315 59 23931ft 376kts
08-Jun-20 15:06 -16.448867 146.588130 59 25352ft 388kts
08-Jun-20 15:07 -16.400612 146.689147 59 26617ft 399kts
08-Jun-20 15:08 -16.351897 146.791126 59 27734ft 409kts
08-Jun-20 15:09 -16.300398 146.898459 59 28777ft 420kts
08-Jun-20 15:09 -16.256369 146.990062 59 29560ft 428kts
08-Jun-20 15:11 -16.193410 147.120808 59 30536ft 440kts
08-Jun-20 15:12 -16.137936 147.235826 60 31326ft 449kts
08-Jun-20 15:12 -16.090910 147.333125 60 31933ft 456kts
08-Jun-20 15:14 -16.024554 147.470209 60 32714ft 464kts
08-Jun-20 15:14 -15.974999 147.572422 61 33252ft 470kts
08-Jun-20 15:15 -15.915839 147.694412 61 33889ft 475kts
08-Jun-20 15:17 -15.846323 147.836827 61 34751ft 473kts
08-Jun-20 15:17 -15.797189 147.937467 61 35129ft 472kts
08-Jun-20 15:18 -15.737704 148.059246 61 35135ft 472kts
08-Jun-20 15:19 -15.678684 148.179877 61 35134ft 472kts
08-Jun-20 15:20 -15.620125 148.299505 61 35135ft 472kts
08-Jun-20 15:21 -15.560417 148.421076 61 35134ft 472kts
08-Jun-20 15:22 -15.500986 148.541892 61 35135ft 472kts
08-Jun-20 15:23 -15.442346 148.660900 61 35132ft 472kts
08-Jun-20 15:24 -15.383327 148.780933 60 35135ft 472kts
08-Jun-20 15:25 -15.323644 148.901559 61 35135ft 472kts
08-Jun-20 15:26 -15.263794 149.022207 61 35135ft 471kts
08-Jun-20 15:27 -15.204232 149.142637 61 35135ft 471kts
08-Jun-20 15:28 -15.144633 149.262937 61 35134ft 471kts
08-Jun-20 15:29 -15.084609 149.383705 61 35134ft 471kts
08-Jun-20 15:30 -15.024889 149.503613 61 35135ft 471kts
08-Jun-20 15:31 -14.965529 149.622638 61 35136ft 466kts
08-Jun-20 15:32 -14.907219 149.739760 61 35135ft 460kts
08-Jun-20 15:33 -14.849314 149.854876 61 35135ft 458kts
08-Jun-20 15:34 -14.790935 149.971133 61 35134ft 458kts
08-Jun-20 15:35 -14.732800 150.086975 61 35134ft 458kts
08-Jun-20 15:36 -14.674508 150.202950 61 35135ft 458kts
08-Jun-20 15:37 -14.615691 150.319803 61 35134ft 458kts
08-Jun-20 15:38 -14.557243 150.435733 61 35134ft 457kts
08-Jun-20 15:39 -14.498531 150.552014 61 35135ft 458kts
08-Jun-20 15:40 -14.440193 150.667433 61 35133ft 458kts
08-Jun-20 15:41 -14.382387 150.782003 61 35134ft 457kts
08-Jun-20 15:42 -14.324063 150.897001 61 35135ft 458kts
08-Jun-20 15:43 -14.264650 151.013887 61 35134ft 457kts
08-Jun-20 15:44 -14.205505 151.129964 61 35134ft 457kts
08-Jun-20 15:45 -14.146567 151.245864 61 35134ft 457kts
08-Jun-20 15:46 -14.087599 151.361543 61 35134ft 457kts
08-Jun-20 15:47 -14.028388 151.477340 61 35134ft 457kts
08-Jun-20 15:48 -13.969197 151.592917 61 35135ft 457kts
08-Jun-20 15:49 -13.910726 151.707167 61 35134ft 457kts
08-Jun-20 15:50 -13.851722 151.821540 61 35134ft 457kts
08-Jun-20 15:51 -13.792274 151.936878 61 35135ft 457kts
08-Jun-20 15:52 -13.733128 152.051701 61 35134ft 457kts
08-Jun-20 15:53 -13.673553 152.167194 61 35135ft 457kts
08-Jun-20 15:54 -13.614578 152.281358 61 35134ft 457kts
08-Jun-20 15:55 -13.555703 152.395171 61 35134ft 457kts
08-Jun-20 15:56 -13.496028 152.510348 61 35134ft 457kts
08-Jun-20 15:57 -13.436636 152.624773 61 35135ft 457kts
08-Jun-20 15:58 -13.377093 152.739833 61 35134ft 457kts
08-Jun-20 15:59 -13.317382 152.855018 61 35135ft 457kts
08-Jun-20 16:00 -13.257650 152.969756 61 35116ft 456kts
08-Jun-20 16:01 -13.197692 153.084734 61 35043ft 456kts
08-Jun-20 16:02 -13.138251 153.198529 61 34970ft 455kts
08-Jun-20 16:03 -13.078207 153.313427 61 34949ft 453kts
08-Jun-20 16:04 -13.018791 153.426933 61 34946ft 451kts
08-Jun-20 16:05 -12.959623 153.539779 61 34946ft 449kts
08-Jun-20 16:06 -12.900757 153.651902 61 34946ft 448kts
08-Jun-20 16:07 -12.841779 153.763700 61 34946ft 449kts
08-Jun-20 16:08 -12.782373 153.876471 61 34946ft 448kts
08-Jun-20 16:09 -12.723119 153.988901 61 34946ft 448kts
08-Jun-20 16:10 -12.663944 154.101047 61 34946ft 448kts
08-Jun-20 16:11 -12.604719 154.213147 61 34946ft 448kts
08-Jun-20 16:12 -12.545565 154.324966 61 34946ft 448kts
08-Jun-20 16:13 -12.486118 154.437203 61 34946ft 448kts
08-Jun-20 16:14 -12.426559 154.549502 61 34946ft 448kts
08-Jun-20 16:15 -12.367302 154.661103 61 34945ft 448kts
08-Jun-20 16:16 -12.308180 154.772687 60 34946ft 448kts
08-Jun-20 16:17 -12.248641 154.884458 60 34946ft 447kts
08-Jun-20 16:18 -12.209177 154.958355 60 34946ft 446kts
08-Jun-20 16:19 -12.209177 154.958355 60 34946ft 446kts
08-Jun-20 16:20 -12.209177 154.958355 60 34946ft 446kts
08-Jun-20 16:21 -12.209177 154.958355 60 34946ft 446kts
08-Jun-20 16:22 -12.209177 154.958355 60 34946ft 446kts
08-Jun-20 16:23 -12.209177 154.958355 60 34946ft 446kts
08-Jun-20 16:24 -12.209177 154.958355 60 34946ft 446kts
08-Jun-20 16:25 -12.209177 154.958355 60 34946ft 446kts
08-Jun-20 16:26 -12.209177 154.958355 60 34946ft 446kts
08-Jun-20 16:27 -12.209177 154.958355 60 34946ft 446kts
08-Jun-20 16:28 -12.209177 154.958355 60 34946ft 446kts
08-Jun-20 16:29 -12.209177 154.958355 60 34946ft 446kts
08-Jun-20 16:30 -12.209177 154.958355 60 34946ft 446kts
08-Jun-20 16:31 -12.209177 154.958355 60 34946ft 446kts
08-Jun-20 16:32 -12.209177 154.958355 60 34946ft 446kts
08-Jun-20 16:33 -12.209177 154.958355 60 34946ft 446kts
08-Jun-20 16:34 -12.209177 154.958355 60 34946ft 446kts
08-Jun-20 16:35 -12.209177 154.958355 60 34946ft 446kts
08-Jun-20 16:36 -12.209177 154.958355 60 34946ft 446kts
08-Jun-20 16:37 -12.209177 154.958355 60 34946ft 446kts
08-Jun-20 16:38 -12.209177 154.958355 60 34946ft 446kts
08-Jun-20 16:39 -12.209177 154.958355 60 34946ft 446kts
08-Jun-20 16:40 -12.209177 154.958355 60 34946ft 446kts
08-Jun-20 16:41 -12.209177 154.958355 60 34946ft 446kts
08-Jun-20 16:42 -12.209177 154.958355 60 34946ft 446kts
08-Jun-20 16:43 -12.209177 154.958355 60 34946ft 446kts
08-Jun-20 16:44 -12.209177 154.958355 60 34946ft 446kts
08-Jun-20 16:45 -12.209177 154.958355 60 34946ft 446kts
08-Jun-20 16:46 -12.209177 154.958355 60 34946ft 446kts
08-Jun-20 16:47 -12.209177 154.958355 60 34946ft 446kts
08-Jun-20 16:48 -12.209177 154.958355 60 34946ft 446kts
08-Jun-20 16:49 -12.209177 154.958355 60 34946ft 446kts
08-Jun-20 16:50 -12.209177 154.958355 60 34946ft 446kts
08-Jun-20 16:51 -12.209177 154.958355 60 34946ft 446kts
08-Jun-20 16:53 -12.209177 154.958355 60 34946ft 446kts
08-Jun-20 16:54 -12.209177 154.958355 60 34946ft 446kts
08-Jun-20 16:55 -12.209177 154.958355 60 34946ft 446kts
08-Jun-20 16:56 -12.209177 154.958355 60 34946ft 446kts
08-Jun-20 16:57 -12.209177 154.958355 60 34946ft 446kts
08-Jun-20 16:58 -12.209177 154.958355 60 34946ft 446kts
08-Jun-20 16:59 -12.209177 154.958355 60 34946ft 446kts
08-Jun-20 17:00 -12.209177 154.958355 60 34946ft 446kts
08-Jun-20 17:01 -12.209177 154.958355 60 34946ft 446kts
08-Jun-20 17:02 -12.209177 154.958355 60 34946ft 446kts
08-Jun-20 17:03 -12.206223 154.963889 60 34946ft 446kts
08-Jun-20 17:04 -12.147036 155.075321 61 34930ft 444kts
08-Jun-20 17:05 -12.088357 155.185602 60 34919ft 444kts
08-Jun-20 17:06 -12.029124 155.296592 60 34918ft 444kts
08-Jun-20 17:07 -11.969986 155.407241 60 34918ft 444kts
08-Jun-20 17:08 -11.910782 155.517885 60 34918ft 444kts
08-Jun-20 17:08 -11.861204 155.609814 60 34918ft 444kts
08-Jun-20 17:10 -11.792085 155.738674 60 34918ft 444kts
08-Jun-20 17:11 -11.732807 155.849210 60 34918ft 444kts
08-Jun-20 17:11 -11.683269 155.941387 60 34918ft 444kts
08-Jun-20 17:13 -11.614150 156.069836 60 34918ft 444kts
08-Jun-20 17:13 -11.564749 156.161537 60 34918ft 444kts
08-Jun-20 17:14 -11.507022 156.268584 60 34918ft 444kts
08-Jun-20 17:16 -11.437797 156.396808 60 34918ft 444kts
08-Jun-20 17:16 -11.388120 156.488715 60 34918ft 444kts
08-Jun-20 17:17 -11.328570 156.598776 60 34918ft 444kts
08-Jun-20 17:18 -11.269141 156.708758 60 34917ft 444kts
08-Jun-20 17:19 -11.210026 156.818040 60 34918ft 444kts
08-Jun-20 17:20 -11.149831 156.928959 60 34918ft 444kts
08-Jun-20 17:21 -11.090205 157.038673 60 34917ft 444kts
08-Jun-20 17:22 -11.030268 157.148816 61 34917ft 446kts
08-Jun-20 17:23 -10.970114 157.259248 61 34918ft 447kts
08-Jun-20 17:24 -10.909708 157.370079 61 34918ft 447kts
08-Jun-20 17:25 -10.849215 157.480186 62 34918ft 446kts
08-Jun-20 17:26 -10.788867 157.590414 62 34918ft 446kts
08-Jun-20 17:27 -10.728759 157.700522 62 34917ft 446kts
08-Jun-20 17:28 -10.668559 157.810758 61 34918ft 446kts
08-Jun-20 17:29 -10.608229 157.920859 61 34918ft 446kts
08-Jun-20 17:30 -10.548014 158.030597 61 34065ft 441kts
08-Jun-20 17:31 -10.489044 158.137926 62 32455ft 429kts
08-Jun-20 17:32 -10.431831 158.241959 62 30893ft 417kts
08-Jun-20 17:33 -10.376026 158.343327 62 29366ft 406kts
08-Jun-20 17:34 -10.321668 158.441941 62 27873ft 395kts
08-Jun-20 17:35 -10.268878 158.537577 62 26426ft 384kts
08-Jun-20 17:36 -10.217272 158.631246 62 24976ft 374kts
08-Jun-20 17:37 -10.167469 158.721684 62 23551ft 364kts
08-Jun-20 17:38 -10.118518 158.810225 62 22142ft 355kts
08-Jun-20 17:39 -10.070713 158.896515 62 20739ft 346kts
08-Jun-20 17:40 -10.024250 158.980320 61 19357ft 337kts
08-Jun-20 17:41 -9.978833 159.062080 61 17967ft 328kts
08-Jun-20 17:42 -9.934606 159.141667 61 16582ft 320kts
08-Jun-20 17:43 -9.889105 159.218129 59 15200ft 313kts
08-Jun-20 17:44 -9.844150 159.291970 59 13834ft 305kts
08-Jun-20 17:45 -9.800059 159.364700 58 12450ft 299kts
08-Jun-20 17:46 -9.756925 159.435872 58 11075ft 294kts
08-Jun-20 17:47 -9.714562 159.505724 58 10007ft 279kts
08-Jun-20 17:48 -9.674457 159.571827 58 8766ft 273kts
08-Jun-20 17:49 -9.635044 159.636738 58 7518ft 266kts
08-Jun-20 17:50 -9.596804 159.699902 58 6302ft 260kts
08-Jun-20 17:51 -9.559663 159.761001 58 5188ft 244kts
08-Jun-20 17:52 -9.525552 159.817061 58 5098ft 217kts
08-Jun-20 17:53 -9.502165 159.870523 67 4075ft 197kts
08-Jun-20 17:54 -9.484058 159.915708 67 3047ft 150kts
08-Jun-20 17:55 -9.468585 159.954297 67 2324ft 147kts
08-Jun-20 17:56 -9.453332 159.992343 67 1380ft 145kts
08-Jun-20 17:57 -9.438112 160.029968 66 399ft 146kts
08-Jun-20 17:58 -9.426438 160.058996 71 22ft 34kts
08-Jun-20 17:59 -9.427304 160.056821 247 24ft 30kts
08-Jun-20 18:00 -9.430934 160.047755 257 28ft 24kts
08-Jun-20 18:01 -9.428831 160.046503 336 31ft 0kts
08-Jun-20 18:02 -9.428151 160.046386 298 32ft 0kts

Navigation Log

Ident Type
Flight plan parsing failed, navigation log unavailable